Aérodrome :
LOGIN :

S'inscrire | Disclaimer

   EN    FR    IT 

 










Légende :    VFR   VFR Marginal   IFR   IFR Intensif   IFR Très Intensif
Visi : 
Plafond : 
>= 8 km
>= 3000ft
5 à 8 km
1000 à 3000 ft
1500m à 5 km
500 à 1000 ft
800 à 1500m
200 à 500 ft
< 800m
< 200 ft
Symboles :   Orages  Brouillard  Fortes neiges  Fortes précipitations  Vent > 20 kt
SIGMETs :   Divers  Orages  Givrage  Turbulence  Onde Orograph.  Cendres Volcan.







- Altitude de l'aérodrome : 1247 ft
- Code IATA : PRG


LKPR - Praha Ruzyne

DERNIER METAR :
  • 201900Z 17006KT CAVOK 00/M02 Q1002 NOSIG

METARs EXPIRÉS :
  • 201830Z 17006KT CAVOK 00/M02 Q1002 NOSIG
  • 201800Z 15007KT CAVOK 00/M02 Q1003 NOSIG
  • 201730Z 16006KT CAVOK 00/M02 Q1003 NOSIG
  • 201700Z 17008KT 9999 FEW025 01/M02 Q1004 NOSIG
  • 201630Z 18006KT 9999 SCT047 01/M02 Q1004 NOSIG
  • 201600Z 19007KT 140V210 9999 FEW025 01/M02 Q1004 NOSIG

TAF TAF LKPR
Valide du 20 à 18h jusqu'au 22 à 00h UTC


201700Z 2018/2200 19008KT 9999 SCT033
BECMG 2018/2019 13007KT
BECMG 2023/2102 06005KT 6000 -SN BKN015
TEMPO 2102/2112 2500 SN OVC007
PROB30
TEMPO 2102/2112 1400 SN BKN004
BECMG 2103/2106 33008KT
BECMG 2112/2114 9999 SCT026
BECMG 2120/2122 VRB02KT
Pas de NOTAMs connus pour ce terrain.



MET'MAP, la Météo Aéronautique d'un coup d'oeil ! - Copyright ORBIFLY Décembre 2007 - Disclaimer

ORBIFLY MET'MAP TEAM :

Programmation & Développement : Alexandra Zaïnal
Conception & Développement : Baudouin d'Aumeries
Co-Programmation & Développement : Marc-Olivier Méhu
Soutien technique & logistique : Manuel Goepfert

Contact : metmap@orbifly.com




SOURCES & CREDITS :

   NOAA